sensor_id;sensor_type;location;lat;lon;timestamp;P1;durP1;ratioP1;P2;durP2;ratioP2
11086;SDS011;5597;47.588;9.642;2023-06-14T00:00:17;5.73;;;3.23;;
11086;SDS011;5597;47.588;9.642;2023-06-14T00:02:42;3.27;;;2.97;;
11086;SDS011;5597;47.588;9.642;2023-06-14T00:05:08;3.13;;;2.83;;
11086;SDS011;5597;47.588;9.642;2023-06-14T00:07:35;3.33;;;3.00;;
11086;SDS011;5597;47.588;9.642;2023-06-14T00:10:08;3.80;;;3.00;;
11086;SDS011;5597;47.588;9.642;2023-06-14T00:12:35;3.10;;;2.80;;
11086;SDS011;5597;47.588;9.642;2023-06-14T00:15:01;3.23;;;2.70;;
11086;SDS011;5597;47.588;9.642;2023-06-14T00:17:27;2.87;;;2.57;;
11086;SDS011;5597;47.588;9.642;2023-06-14T00:19:56;2.97;;;2.60;;
11086;SDS011;5597;47.588;9.642;2023-06-14T00:22:22;2.80;;;2.50;;
11086;SDS011;5597;47.588;9.642;2023-06-14T00:24:53;3.23;;;2.80;;
11086;SDS011;5597;47.588;9.642;2023-06-14T00:27:19;3.07;;;2.77;;
11086;SDS011;5597;47.588;9.642;2023-06-14T00:29:44;3.23;;;2.93;;
11086;SDS011;5597;47.588;9.642;2023-06-14T00:32:10;5.80;;;2.90;;
11086;SDS011;5597;47.588;9.642;2023-06-14T00:34:36;3.23;;;2.93;;
11086;SDS011;5597;47.588;9.642;2023-06-14T00:37:01;4.70;;;3.00;;
11086;SDS011;5597;47.588;9.642;2023-06-14T00:39:27;2.80;;;2.60;;
11086;SDS011;5597;47.588;9.642;2023-06-14T00:41:53;5.80;;;2.97;;
11086;SDS011;5597;47.588;9.642;2023-06-14T00:44:18;3.17;;;2.67;;
11086;SDS011;5597;47.588;9.642;2023-06-14T00:46:45;4.60;;;2.87;;
11086;SDS011;5597;47.588;9.642;2023-06-14T00:49:11;4.60;;;3.20;;
11086;SDS011;5597;47.588;9.642;2023-06-14T00:51:39;3.50;;;3.00;;
11086;SDS011;5597;47.588;9.642;2023-06-14T00:54:04;2.87;;;2.40;;
11086;SDS011;5597;47.588;9.642;2023-06-14T00:56:30;2.67;;;2.40;;
11086;SDS011;5597;47.588;9.642;2023-06-14T00:58:56;2.93;;;2.63;;
11086;SDS011;5597;47.588;9.642;2023-06-14T01:01:22;4.27;;;3.10;;
11086;SDS011;5597;47.588;9.642;2023-06-14T01:03:49;3.00;;;2.70;;
11086;SDS011;5597;47.588;9.642;2023-06-14T01:08:56;3.37;;;2.47;;
11086;SDS011;5597;47.588;9.642;2023-06-14T01:11:39;2.77;;;2.50;;
11086;SDS011;5597;47.588;9.642;2023-06-14T01:14:12;3.80;;;2.77;;
11086;SDS011;5597;47.588;9.642;2023-06-14T01:16:41;3.20;;;2.90;;
11086;SDS011;5597;47.588;9.642;2023-06-14T01:19:07;3.53;;;2.77;;
11086;SDS011;5597;47.588;9.642;2023-06-14T01:21:38;4.23;;;3.20;;
11086;SDS011;5597;47.588;9.642;2023-06-14T01:24:06;3.60;;;2.63;;
11086;SDS011;5597;47.588;9.642;2023-06-14T01:26:33;3.27;;;2.83;;
11086;SDS011;5597;47.588;9.642;2023-06-14T01:29:00;3.37;;;3.03;;
11086;SDS011;5597;47.588;9.642;2023-06-14T01:31:26;3.40;;;3.03;;
11086;SDS011;5597;47.588;9.642;2023-06-14T01:33:52;3.27;;;2.97;;
11086;SDS011;5597;47.588;9.642;2023-06-14T01:36:18;3.27;;;2.90;;
11086;SDS011;5597;47.588;9.642;2023-06-14T01:38:45;3.10;;;2.80;;
11086;SDS011;5597;47.588;9.642;2023-06-14T01:41:13;3.70;;;2.90;;
11086;SDS011;5597;47.588;9.642;2023-06-14T01:43:40;3.20;;;2.90;;
11086;SDS011;5597;47.588;9.642;2023-06-14T01:46:06;4.57;;;3.40;;
11086;SDS011;5597;47.588;9.642;2023-06-14T01:48:34;3.30;;;3.00;;
11086;SDS011;5597;47.588;9.642;2023-06-14T01:51:00;3.63;;;3.00;;
11086;SDS011;5597;47.588;9.642;2023-06-14T01:53:25;3.60;;;3.20;;
11086;SDS011;5597;47.588;9.642;2023-06-14T01:55:51;3.40;;;3.10;;
11086;SDS011;5597;47.588;9.642;2023-06-14T01:58:19;4.93;;;3.30;;
11086;SDS011;5597;47.588;9.642;2023-06-14T02:00:46;4.40;;;3.17;;
11086;SDS011;5597;47.588;9.642;2023-06-14T02:03:12;4.27;;;3.13;;
11086;SDS011;5597;47.588;9.642;2023-06-14T02:05:38;4.03;;;3.07;;
11086;SDS011;5597;47.588;9.642;2023-06-14T02:08:05;3.57;;;3.27;;
11086;SDS011;5597;47.588;9.642;2023-06-14T02:10:31;4.47;;;3.27;;
11086;SDS011;5597;47.588;9.642;2023-06-14T02:12:56;4.27;;;3.43;;
11086;SDS011;5597;47.588;9.642;2023-06-14T02:15:22;4.33;;;3.20;;
11086;SDS011;5597;47.588;9.642;2023-06-14T02:17:48;4.57;;;3.13;;
11086;SDS011;5597;47.588;9.642;2023-06-14T02:20:17;3.10;;;2.80;;
11086;SDS011;5597;47.588;9.642;2023-06-14T02:22:43;3.23;;;2.90;;
11086;SDS011;5597;47.588;9.642;2023-06-14T02:25:09;3.47;;;3.17;;
11086;SDS011;5597;47.588;9.642;2023-06-14T02:27:35;3.40;;;3.07;;
11086;SDS011;5597;47.588;9.642;2023-06-14T02:30:00;4.17;;;3.13;;
11086;SDS011;5597;47.588;9.642;2023-06-14T02:32:26;3.50;;;3.20;;
11086;SDS011;5597;47.588;9.642;2023-06-14T02:34:52;3.47;;;2.97;;
11086;SDS011;5597;47.588;9.642;2023-06-14T02:37:18;3.87;;;3.30;;
11086;SDS011;5597;47.588;9.642;2023-06-14T02:39:44;4.70;;;3.23;;
11086;SDS011;5597;47.588;9.642;2023-06-14T02:42:10;3.23;;;2.73;;
11086;SDS011;5597;47.588;9.642;2023-06-14T02:44:36;3.57;;;3.23;;
11086;SDS011;5597;47.588;9.642;2023-06-14T02:47:01;2.90;;;2.70;;
11086;SDS011;5597;47.588;9.642;2023-06-14T02:49:27;3.50;;;3.20;;
11086;SDS011;5597;47.588;9.642;2023-06-14T02:51:54;3.50;;;3.13;;
11086;SDS011;5597;47.588;9.642;2023-06-14T02:54:20;3.20;;;2.90;;
11086;SDS011;5597;47.588;9.642;2023-06-14T02:56:45;3.33;;;3.00;;
11086;SDS011;5597;47.588;9.642;2023-06-14T02:59:11;3.17;;;2.87;;
11086;SDS011;5597;47.588;9.642;2023-06-14T03:01:38;3.30;;;2.77;;
11086;SDS011;5597;47.588;9.642;2023-06-14T03:04:06;3.03;;;2.73;;
11086;SDS011;5597;47.588;9.642;2023-06-14T03:06:32;3.43;;;3.03;;
11086;SDS011;5597;47.588;9.642;2023-06-14T03:08:58;3.37;;;2.90;;
11086;SDS011;5597;47.588;9.642;2023-06-14T03:11:29;3.87;;;3.20;;
11086;SDS011;5597;47.588;9.642;2023-06-14T03:13:55;4.07;;;3.20;;
11086;SDS011;5597;47.588;9.642;2023-06-14T03:16:22;5.67;;;3.03;;
11086;SDS011;5597;47.588;9.642;2023-06-14T03:18:49;3.70;;;3.17;;
11086;SDS011;5597;47.588;9.642;2023-06-14T03:21:18;3.40;;;3.10;;
11086;SDS011;5597;47.588;9.642;2023-06-14T03:23:45;4.70;;;3.27;;
11086;SDS011;5597;47.588;9.642;2023-06-14T03:26:11;4.13;;;2.83;;
11086;SDS011;5597;47.588;9.642;2023-06-14T03:28:42;4.53;;;3.30;;
11086;SDS011;5597;47.588;9.642;2023-06-14T03:31:11;3.60;;;2.87;;
11086;SDS011;5597;47.588;9.642;2023-06-14T03:33:37;3.33;;;3.03;;
11086;SDS011;5597;47.588;9.642;2023-06-14T03:36:04;3.60;;;3.30;;
11086;SDS011;5597;47.588;9.642;2023-06-14T03:38:30;5.33;;;3.00;;
11086;SDS011;5597;47.588;9.642;2023-06-14T03:40:55;3.53;;;3.20;;
11086;SDS011;5597;47.588;9.642;2023-06-14T03:43:21;3.67;;;3.10;;
11086;SDS011;5597;47.588;9.642;2023-06-14T03:45:46;3.70;;;2.90;;
11086;SDS011;5597;47.588;9.642;2023-06-14T03:48:12;4.67;;;3.10;;
11086;SDS011;5597;47.588;9.642;2023-06-14T03:50:37;3.50;;;3.07;;
11086;SDS011;5597;47.588;9.642;2023-06-14T03:53:06;3.40;;;3.10;;
11086;SDS011;5597;47.588;9.642;2023-06-14T03:55:31;3.50;;;3.20;;
11086;SDS011;5597;47.588;9.642;2023-06-14T03:57:58;3.47;;;3.17;;
11086;SDS011;5597;47.588;9.642;2023-06-14T04:00:24;4.20;;;3.37;;
11086;SDS011;5597;47.588;9.642;2023-06-14T04:02:50;4.30;;;3.90;;
11086;SDS011;5597;47.588;9.642;2023-06-14T04:05:15;4.00;;;3.47;;
11086;SDS011;5597;47.588;9.642;2023-06-14T04:07:47;4.23;;;3.23;;
11086;SDS011;5597;47.588;9.642;2023-06-14T04:10:13;3.83;;;3.17;;
11086;SDS011;5597;47.588;9.642;2023-06-14T04:12:40;4.97;;;3.50;;
11086;SDS011;5597;47.588;9.642;2023-06-14T04:15:06;5.30;;;3.60;;
11086;SDS011;5597;47.588;9.642;2023-06-14T04:17:33;4.70;;;3.47;;
11086;SDS011;5597;47.588;9.642;2023-06-14T04:19:59;4.83;;;3.43;;
11086;SDS011;5597;47.588;9.642;2023-06-14T04:22:25;3.40;;;3.10;;
11086;SDS011;5597;47.588;9.642;2023-06-14T04:24:53;4.73;;;3.00;;
11086;SDS011;5597;47.588;9.642;2023-06-14T04:27:21;4.20;;;3.13;;
11086;SDS011;5597;47.588;9.642;2023-06-14T04:29:51;4.43;;;3.40;;
11086;SDS011;5597;47.588;9.642;2023-06-14T04:32:22;3.43;;;3.10;;
11086;SDS011;5597;47.588;9.642;2023-06-14T04:34:54;3.50;;;3.20;;
11086;SDS011;5597;47.588;9.642;2023-06-14T04:37:23;4.27;;;3.13;;
11086;SDS011;5597;47.588;9.642;2023-06-14T04:39:48;3.97;;;3.50;;
11086;SDS011;5597;47.588;9.642;2023-06-14T04:42:15;4.37;;;3.80;;
11086;SDS011;5597;47.588;9.642;2023-06-14T04:44:41;3.97;;;3.57;;
11086;SDS011;5597;47.588;9.642;2023-06-14T04:47:08;4.73;;;3.40;;
11086;SDS011;5597;47.588;9.642;2023-06-14T04:49:38;5.33;;;3.97;;
11086;SDS011;5597;47.588;9.642;2023-06-14T04:52:05;5.80;;;4.03;;
11086;SDS011;5597;47.588;9.642;2023-06-14T04:54:31;4.43;;;3.90;;
11086;SDS011;5597;47.588;9.642;2023-06-14T04:56:58;4.30;;;3.80;;
11086;SDS011;5597;47.588;9.642;2023-06-14T04:59:23;6.00;;;3.90;;
11086;SDS011;5597;47.588;9.642;2023-06-14T05:01:49;6.70;;;4.10;;
11086;SDS011;5597;47.588;9.642;2023-06-14T05:04:15;3.70;;;3.27;;
11086;SDS011;5597;47.588;9.642;2023-06-14T05:06:41;5.50;;;4.00;;
11086;SDS011;5597;47.588;9.642;2023-06-14T05:09:09;5.17;;;3.70;;
11086;SDS011;5597;47.588;9.642;2023-06-14T05:11:35;4.70;;;3.20;;
11086;SDS011;5597;47.588;9.642;2023-06-14T05:14:01;3.40;;;3.07;;
11086;SDS011;5597;47.588;9.642;2023-06-14T05:16:27;3.70;;;3.40;;
11086;SDS011;5597;47.588;9.642;2023-06-14T05:18:54;5.50;;;3.60;;
11086;SDS011;5597;47.588;9.642;2023-06-14T05:21:20;4.10;;;3.50;;
11086;SDS011;5597;47.588;9.642;2023-06-14T05:23:45;5.97;;;3.73;;
11086;SDS011;5597;47.588;9.642;2023-06-14T05:26:11;4.40;;;3.27;;
11086;SDS011;5597;47.588;9.642;2023-06-14T05:28:37;4.47;;;3.03;;
11086;SDS011;5597;47.588;9.642;2023-06-14T05:31:02;7.70;;;3.53;;
11086;SDS011;5597;47.588;9.642;2023-06-14T05:33:28;3.73;;;3.10;;
11086;SDS011;5597;47.588;9.642;2023-06-14T05:35:54;4.27;;;3.23;;
11086;SDS011;5597;47.588;9.642;2023-06-14T05:38:20;4.23;;;3.40;;
11086;SDS011;5597;47.588;9.642;2023-06-14T05:40:46;4.03;;;2.87;;
11086;SDS011;5597;47.588;9.642;2023-06-14T05:43:12;4.83;;;3.37;;
11086;SDS011;5597;47.588;9.642;2023-06-14T05:45:37;3.97;;;3.57;;
11086;SDS011;5597;47.588;9.642;2023-06-14T05:48:03;3.30;;;3.00;;
11086;SDS011;5597;47.588;9.642;2023-06-14T05:50:28;3.40;;;2.83;;
11086;SDS011;5597;47.588;9.642;2023-06-14T05:52:54;3.70;;;3.07;;
11086;SDS011;5597;47.588;9.642;2023-06-14T05:55:20;3.60;;;3.20;;
11086;SDS011;5597;47.588;9.642;2023-06-14T05:57:45;3.77;;;3.20;;
11086;SDS011;5597;47.588;9.642;2023-06-14T06:00:13;3.37;;;3.07;;
11086;SDS011;5597;47.588;9.642;2023-06-14T06:02:42;4.00;;;3.27;;
11086;SDS011;5597;47.588;9.642;2023-06-14T06:05:09;3.63;;;2.90;;
11086;SDS011;5597;47.588;9.642;2023-06-14T06:07:35;4.60;;;3.50;;
11086;SDS011;5597;47.588;9.642;2023-06-14T06:10:02;4.27;;;3.30;;
11086;SDS011;5597;47.588;9.642;2023-06-14T06:12:28;4.83;;;3.10;;
11086;SDS011;5597;47.588;9.642;2023-06-14T06:14:54;5.37;;;3.40;;
11086;SDS011;5597;47.588;9.642;2023-06-14T06:17:20;3.87;;;2.90;;
11086;SDS011;5597;47.588;9.642;2023-06-14T06:19:45;4.10;;;3.70;;
11086;SDS011;5597;47.588;9.642;2023-06-14T06:22:11;3.50;;;3.20;;
11086;SDS011;5597;47.588;9.642;2023-06-14T06:24:36;4.43;;;3.40;;
11086;SDS011;5597;47.588;9.642;2023-06-14T06:27:02;4.07;;;3.53;;
11086;SDS011;5597;47.588;9.642;2023-06-14T06:29:28;5.33;;;3.50;;
11086;SDS011;5597;47.588;9.642;2023-06-14T06:31:54;3.57;;;3.20;;
11086;SDS011;5597;47.588;9.642;2023-06-14T06:34:21;3.97;;;3.40;;
11086;SDS011;5597;47.588;9.642;2023-06-14T06:36:46;4.03;;;3.57;;
11086;SDS011;5597;47.588;9.642;2023-06-14T06:39:12;3.63;;;3.33;;
11086;SDS011;5597;47.588;9.642;2023-06-14T06:41:40;3.63;;;3.30;;
11086;SDS011;5597;47.588;9.642;2023-06-14T06:44:05;5.90;;;3.60;;
11086;SDS011;5597;47.588;9.642;2023-06-14T06:46:32;3.57;;;3.27;;
11086;SDS011;5597;47.588;9.642;2023-06-14T06:48:58;4.07;;;3.67;;
11086;SDS011;5597;47.588;9.642;2023-06-14T06:51:24;4.27;;;3.47;;
11086;SDS011;5597;47.588;9.642;2023-06-14T06:53:53;3.87;;;3.50;;
11086;SDS011;5597;47.588;9.642;2023-06-14T06:56:19;4.93;;;3.17;;
11086;SDS011;5597;47.588;9.642;2023-06-14T06:58:46;3.97;;;3.30;;
11086;SDS011;5597;47.588;9.642;2023-06-14T07:01:12;3.80;;;2.90;;
11086;SDS011;5597;47.588;9.642;2023-06-14T07:03:38;3.63;;;3.33;;
11086;SDS011;5597;47.588;9.642;2023-06-14T07:06:03;3.80;;;3.40;;
11086;SDS011;5597;47.588;9.642;2023-06-14T07:08:29;3.73;;;3.00;;
11086;SDS011;5597;47.588;9.642;2023-06-14T07:10:55;3.80;;;3.43;;
11086;SDS011;5597;47.588;9.642;2023-06-14T07:13:20;3.43;;;3.13;;
11086;SDS011;5597;47.588;9.642;2023-06-14T07:15:46;4.10;;;3.47;;
11086;SDS011;5597;47.588;9.642;2023-06-14T07:18:12;4.30;;;3.70;;
11086;SDS011;5597;47.588;9.642;2023-06-14T07:20:38;3.80;;;3.40;;
11086;SDS011;5597;47.588;9.642;2023-06-14T07:23:03;3.30;;;3.00;;
11086;SDS011;5597;47.588;9.642;2023-06-14T07:25:30;3.30;;;3.00;;
11086;SDS011;5597;47.588;9.642;2023-06-14T07:27:56;3.63;;;3.33;;
11086;SDS011;5597;47.588;9.642;2023-06-14T07:30:21;4.83;;;3.30;;
11086;SDS011;5597;47.588;9.642;2023-06-14T07:32:50;4.07;;;3.00;;
11086;SDS011;5597;47.588;9.642;2023-06-14T07:35:17;3.93;;;3.50;;
11086;SDS011;5597;47.588;9.642;2023-06-14T07:37:43;3.60;;;3.30;;
11086;SDS011;5597;47.588;9.642;2023-06-14T07:40:09;4.37;;;3.10;;
11086;SDS011;5597;47.588;9.642;2023-06-14T07:42:35;5.27;;;3.30;;
11086;SDS011;5597;47.588;9.642;2023-06-14T07:45:01;3.70;;;3.30;;
11086;SDS011;5597;47.588;9.642;2023-06-14T07:47:31;3.30;;;3.00;;
11086;SDS011;5597;47.588;9.642;2023-06-14T07:49:57;3.63;;;3.00;;
11086;SDS011;5597;47.588;9.642;2023-06-14T07:52:22;5.63;;;3.53;;
11086;SDS011;5597;47.588;9.642;2023-06-14T07:54:48;4.10;;;3.70;;
11086;SDS011;5597;47.588;9.642;2023-06-14T07:57:13;4.23;;;3.37;;
11086;SDS011;5597;47.588;9.642;2023-06-14T07:59:39;3.57;;;3.23;;
11086;SDS011;5597;47.588;9.642;2023-06-14T08:02:05;3.87;;;3.43;;
11086;SDS011;5597;47.588;9.642;2023-06-14T08:04:32;3.40;;;3.10;;
11086;SDS011;5597;47.588;9.642;2023-06-14T08:06:58;3.57;;;2.87;;
11086;SDS011;5597;47.588;9.642;2023-06-14T08:09:24;3.20;;;3.00;;
11086;SDS011;5597;47.588;9.642;2023-06-14T08:11:50;5.50;;;3.70;;
11086;SDS011;5597;47.588;9.642;2023-06-14T08:14:15;3.50;;;3.20;;
11086;SDS011;5597;47.588;9.642;2023-06-14T08:16:41;4.57;;;3.60;;
11086;SDS011;5597;47.588;9.642;2023-06-14T08:19:07;4.50;;;3.60;;
11086;SDS011;5597;47.588;9.642;2023-06-14T08:21:32;4.93;;;3.83;;
11086;SDS011;5597;47.588;9.642;2023-06-14T08:23:58;3.97;;;3.60;;
11086;SDS011;5597;47.588;9.642;2023-06-14T08:26:24;5.07;;;3.50;;
11086;SDS011;5597;47.588;9.642;2023-06-14T08:28:54;3.30;;;3.00;;
11086;SDS011;5597;47.588;9.642;2023-06-14T08:31:20;4.73;;;3.20;;
11086;SDS011;5597;47.588;9.642;2023-06-14T08:33:46;4.47;;;3.30;;
11086;SDS011;5597;47.588;9.642;2023-06-14T08:36:11;3.70;;;3.40;;
11086;SDS011;5597;47.588;9.642;2023-06-14T08:38:38;5.47;;;4.03;;
11086;SDS011;5597;47.588;9.642;2023-06-14T08:41:04;4.20;;;3.80;;
11086;SDS011;5597;47.588;9.642;2023-06-14T08:43:31;4.93;;;3.50;;
11086;SDS011;5597;47.588;9.642;2023-06-14T08:46:00;5.00;;;3.57;;
11086;SDS011;5597;47.588;9.642;2023-06-14T08:48:28;4.30;;;3.90;;
11086;SDS011;5597;47.588;9.642;2023-06-14T08:50:57;4.43;;;3.60;;
11086;SDS011;5597;47.588;9.642;2023-06-14T08:53:29;3.97;;;3.37;;
11086;SDS011;5597;47.588;9.642;2023-06-14T08:55:57;4.30;;;3.70;;
11086;SDS011;5597;47.588;9.642;2023-06-14T08:58:26;4.20;;;3.27;;
11086;SDS011;5597;47.588;9.642;2023-06-14T09:00:54;5.60;;;4.33;;
11086;SDS011;5597;47.588;9.642;2023-06-14T09:03:20;4.00;;;3.47;;
11086;SDS011;5597;47.588;9.642;2023-06-14T09:05:47;3.50;;;3.20;;
11086;SDS011;5597;47.588;9.642;2023-06-14T09:08:13;4.77;;;3.30;;
11086;SDS011;5597;47.588;9.642;2023-06-14T09:10:39;4.67;;;3.40;;
11086;SDS011;5597;47.588;9.642;2023-06-14T09:13:05;4.40;;;3.83;;
11086;SDS011;5597;47.588;9.642;2023-06-14T09:15:31;4.40;;;3.90;;
11086;SDS011;5597;47.588;9.642;2023-06-14T09:17:58;4.20;;;3.90;;
11086;SDS011;5597;47.588;9.642;2023-06-14T09:20:26;4.17;;;3.70;;
11086;SDS011;5597;47.588;9.642;2023-06-14T09:22:54;3.77;;;3.40;;
11086;SDS011;5597;47.588;9.642;2023-06-14T09:25:20;8.03;;;4.10;;
11086;SDS011;5597;47.588;9.642;2023-06-14T09:27:46;4.03;;;3.10;;
11086;SDS011;5597;47.588;9.642;2023-06-14T09:30:12;7.67;;;3.50;;
11086;SDS011;5597;47.588;9.642;2023-06-14T09:32:41;3.87;;;3.50;;
11086;SDS011;5597;47.588;9.642;2023-06-14T09:35:07;4.63;;;3.90;;
11086;SDS011;5597;47.588;9.642;2023-06-14T09:37:33;5.63;;;3.73;;
11086;SDS011;5597;47.588;9.642;2023-06-14T09:40:00;6.20;;;4.20;;
11086;SDS011;5597;47.588;9.642;2023-06-14T09:42:26;4.67;;;3.57;;
11086;SDS011;5597;47.588;9.642;2023-06-14T09:44:53;3.63;;;3.30;;
11086;SDS011;5597;47.588;9.642;2023-06-14T09:47:19;4.10;;;3.70;;
11086;SDS011;5597;47.588;9.642;2023-06-14T09:49:45;3.60;;;3.30;;
11086;SDS011;5597;47.588;9.642;2023-06-14T09:52:13;4.33;;;3.77;;
11086;SDS011;5597;47.588;9.642;2023-06-14T09:54:45;3.97;;;3.57;;
11086;SDS011;5597;47.588;9.642;2023-06-14T09:57:21;4.87;;;3.80;;
11086;SDS011;5597;47.588;9.642;2023-06-14T09:59:48;4.13;;;3.73;;
11086;SDS011;5597;47.588;9.642;2023-06-14T10:02:31;3.60;;;3.30;;
11086;SDS011;5597;47.588;9.642;2023-06-14T10:05:05;4.13;;;3.33;;
11086;SDS011;5597;47.588;9.642;2023-06-14T10:08:20;3.77;;;3.47;;
11086;SDS011;5597;47.588;9.642;2023-06-14T10:10:25;4.80;;;3.33;;
11086;SDS011;5597;47.588;9.642;2023-06-14T10:12:50;4.43;;;3.53;;
11086;SDS011;5597;47.588;9.642;2023-06-14T10:15:22;3.67;;;3.10;;
11086;SDS011;5597;47.588;9.642;2023-06-14T10:17:58;4.17;;;3.20;;
11086;SDS011;5597;47.588;9.642;2023-06-14T10:21:12;4.10;;;3.70;;
11086;SDS011;5597;47.588;9.642;2023-06-14T10:23:25;5.73;;;3.60;;
11086;SDS011;5597;47.588;9.642;2023-06-14T10:25:56;4.10;;;3.70;;
11086;SDS011;5597;47.588;9.642;2023-06-14T10:28:22;3.93;;;3.37;;
11086;SDS011;5597;47.588;9.642;2023-06-14T10:31:01;3.53;;;3.23;;
11086;SDS011;5597;47.588;9.642;2023-06-14T10:36:29;4.60;;;3.30;;
11086;SDS011;5597;47.588;9.642;2023-06-14T10:39:03;3.90;;;3.50;;
11086;SDS011;5597;47.588;9.642;2023-06-14T10:41:41;3.00;;;2.80;;
11086;SDS011;5597;47.588;9.642;2023-06-14T10:46:54;3.80;;;3.17;;
11086;SDS011;5597;47.588;9.642;2023-06-14T10:49:20;4.83;;;3.13;;
11086;SDS011;5597;47.588;9.642;2023-06-14T10:52:03;3.97;;;3.20;;
11086;SDS011;5597;47.588;9.642;2023-06-14T10:54:31;3.83;;;3.13;;
11086;SDS011;5597;47.588;9.642;2023-06-14T10:56:57;4.73;;;3.00;;
11086;SDS011;5597;47.588;9.642;2023-06-14T10:59:24;4.07;;;3.30;;
11086;SDS011;5597;47.588;9.642;2023-06-14T11:01:57;3.23;;;2.93;;
11086;SDS011;5597;47.588;9.642;2023-06-14T11:10:35;3.93;;;3.17;;
11086;SDS011;5597;47.588;9.642;2023-06-14T11:13:02;4.43;;;3.10;;
11086;SDS011;5597;47.588;9.642;2023-06-14T11:15:29;3.80;;;3.00;;
11086;SDS011;5597;47.588;9.642;2023-06-14T11:18:03;3.43;;;3.13;;
11086;SDS011;5597;47.588;9.642;2023-06-14T11:20:31;7.17;;;3.23;;
11086;SDS011;5597;47.588;9.642;2023-06-14T11:22:57;4.30;;;3.10;;
11086;SDS011;5597;47.588;9.642;2023-06-14T11:25:23;4.27;;;3.30;;
11086;SDS011;5597;47.588;9.642;2023-06-14T11:27:50;4.10;;;3.07;;
11086;SDS011;5597;47.588;9.642;2023-06-14T11:30:16;3.33;;;3.00;;
11086;SDS011;5597;47.588;9.642;2023-06-14T11:32:45;3.67;;;2.90;;
11086;SDS011;5597;47.588;9.642;2023-06-14T11:35:11;4.33;;;3.17;;
11086;SDS011;5597;47.588;9.642;2023-06-14T11:37:37;3.20;;;2.90;;
11086;SDS011;5597;47.588;9.642;2023-06-14T11:40:03;3.30;;;3.00;;
11086;SDS011;5597;47.588;9.642;2023-06-14T11:42:34;3.87;;;2.90;;
11086;SDS011;5597;47.588;9.642;2023-06-14T11:45:01;4.20;;;3.07;;
11086;SDS011;5597;47.588;9.642;2023-06-14T11:47:34;3.70;;;2.70;;
11086;SDS011;5597;47.588;9.642;2023-06-14T11:50:01;3.10;;;2.90;;
11086;SDS011;5597;47.588;9.642;2023-06-14T11:52:27;4.63;;;3.10;;
11086;SDS011;5597;47.588;9.642;2023-06-14T11:54:53;3.47;;;3.17;;
11086;SDS011;5597;47.588;9.642;2023-06-14T11:57:19;3.00;;;2.80;;
11086;SDS011;5597;47.588;9.642;2023-06-14T11:59:45;3.10;;;2.80;;
11086;SDS011;5597;47.588;9.642;2023-06-14T12:02:14;3.53;;;2.80;;
11086;SDS011;5597;47.588;9.642;2023-06-14T12:04:41;3.70;;;3.40;;
11086;SDS011;5597;47.588;9.642;2023-06-14T12:07:11;3.60;;;3.30;;
11086;SDS011;5597;47.588;9.642;2023-06-14T12:09:39;3.33;;;3.03;;
11086;SDS011;5597;47.588;9.642;2023-06-14T12:12:25;3.60;;;3.30;;
11086;SDS011;5597;47.588;9.642;2023-06-14T12:14:52;3.13;;;2.90;;
11086;SDS011;5597;47.588;9.642;2023-06-14T12:17:18;3.10;;;2.80;;
11086;SDS011;5597;47.588;9.642;2023-06-14T12:19:45;4.77;;;3.00;;
11086;SDS011;5597;47.588;9.642;2023-06-14T12:22:12;3.40;;;3.00;;
11086;SDS011;5597;47.588;9.642;2023-06-14T12:24:38;3.53;;;3.23;;
11086;SDS011;5597;47.588;9.642;2023-06-14T12:27:07;3.47;;;3.17;;
11086;SDS011;5597;47.588;9.642;2023-06-14T12:29:33;3.83;;;3.13;;
11086;SDS011;5597;47.588;9.642;2023-06-14T12:31:58;3.40;;;2.70;;
11086;SDS011;5597;47.588;9.642;2023-06-14T12:34:24;3.60;;;2.90;;
11086;SDS011;5597;47.588;9.642;2023-06-14T12:36:52;4.00;;;3.13;;
11086;SDS011;5597;47.588;9.642;2023-06-14T12:39:20;3.70;;;2.90;;
11086;SDS011;5597;47.588;9.642;2023-06-14T12:41:46;3.47;;;3.13;;
11086;SDS011;5597;47.588;9.642;2023-06-14T12:44:13;5.20;;;3.43;;
11086;SDS011;5597;47.588;9.642;2023-06-14T12:46:40;3.53;;;2.80;;
11086;SDS011;5597;47.588;9.642;2023-06-14T12:49:08;3.33;;;3.03;;
11086;SDS011;5597;47.588;9.642;2023-06-14T12:51:34;3.30;;;3.00;;
11086;SDS011;5597;47.588;9.642;2023-06-14T12:54:00;4.07;;;3.27;;
11086;SDS011;5597;47.588;9.642;2023-06-14T12:56:25;3.20;;;2.90;;
11086;SDS011;5597;47.588;9.642;2023-06-14T12:58:51;3.83;;;2.90;;
11086;SDS011;5597;47.588;9.642;2023-06-14T13:01:17;4.87;;;3.13;;
11086;SDS011;5597;47.588;9.642;2023-06-14T13:03:43;4.40;;;2.90;;
11086;SDS011;5597;47.588;9.642;2023-06-14T13:06:08;4.60;;;2.90;;
11086;SDS011;5597;47.588;9.642;2023-06-14T13:08:34;4.17;;;3.13;;
11086;SDS011;5597;47.588;9.642;2023-06-14T13:10:59;3.83;;;3.00;;
11086;SDS011;5597;47.588;9.642;2023-06-14T13:13:25;3.50;;;3.10;;
11086;SDS011;5597;47.588;9.642;2023-06-14T13:15:50;4.30;;;3.27;;
11086;SDS011;5597;47.588;9.642;2023-06-14T13:18:16;3.00;;;2.80;;
11086;SDS011;5597;47.588;9.642;2023-06-14T13:20:42;3.40;;;2.80;;
11086;SDS011;5597;47.588;9.642;2023-06-14T13:23:08;3.70;;;2.77;;
11086;SDS011;5597;47.588;9.642;2023-06-14T13:25:35;3.07;;;2.83;;
11086;SDS011;5597;47.588;9.642;2023-06-14T13:28:03;4.03;;;3.17;;
11086;SDS011;5597;47.588;9.642;2023-06-14T13:30:30;3.30;;;3.00;;
11086;SDS011;5597;47.588;9.642;2023-06-14T13:32:56;3.53;;;3.20;;
11086;SDS011;5597;47.588;9.642;2023-06-14T13:35:22;3.97;;;2.90;;
11086;SDS011;5597;47.588;9.642;2023-06-14T13:37:48;3.33;;;3.03;;
11086;SDS011;5597;47.588;9.642;2023-06-14T13:40:14;5.80;;;3.23;;
11086;SDS011;5597;47.588;9.642;2023-06-14T13:42:39;4.10;;;3.27;;
11086;SDS011;5597;47.588;9.642;2023-06-14T13:45:05;3.13;;;2.90;;
11086;SDS011;5597;47.588;9.642;2023-06-14T13:47:32;5.17;;;3.20;;
11086;SDS011;5597;47.588;9.642;2023-06-14T13:49:58;3.00;;;2.80;;
11086;SDS011;5597;47.588;9.642;2023-06-14T13:52:24;3.20;;;2.90;;
11086;SDS011;5597;47.588;9.642;2023-06-14T13:54:50;3.63;;;3.30;;
11086;SDS011;5597;47.588;9.642;2023-06-14T13:57:16;3.47;;;2.63;;
11086;SDS011;5597;47.588;9.642;2023-06-14T13:59:42;3.63;;;2.90;;
11086;SDS011;5597;47.588;9.642;2023-06-14T14:02:09;3.03;;;2.47;;
11086;SDS011;5597;47.588;9.642;2023-06-14T14:04:35;3.37;;;2.90;;
11086;SDS011;5597;47.588;9.642;2023-06-14T14:07:01;3.87;;;3.00;;
11086;SDS011;5597;47.588;9.642;2023-06-14T14:09:27;2.77;;;2.53;;
11086;SDS011;5597;47.588;9.642;2023-06-14T14:11:53;3.00;;;2.70;;
11086;SDS011;5597;47.588;9.642;2023-06-14T14:14:18;2.70;;;2.50;;
11086;SDS011;5597;47.588;9.642;2023-06-14T14:16:44;2.87;;;2.67;;
11086;SDS011;5597;47.588;9.642;2023-06-14T14:19:09;3.70;;;2.67;;
11086;SDS011;5597;47.588;9.642;2023-06-14T14:21:35;4.77;;;2.90;;
11086;SDS011;5597;47.588;9.642;2023-06-14T14:24:01;3.30;;;3.00;;
11086;SDS011;5597;47.588;9.642;2023-06-14T14:26:26;3.27;;;3.00;;
11086;SDS011;5597;47.588;9.642;2023-06-14T14:28:52;3.23;;;2.83;;
11086;SDS011;5597;47.588;9.642;2023-06-14T14:31:18;3.17;;;2.70;;
11086;SDS011;5597;47.588;9.642;2023-06-14T14:33:43;3.47;;;2.83;;
11086;SDS011;5597;47.588;9.642;2023-06-14T14:36:09;3.43;;;2.60;;
11086;SDS011;5597;47.588;9.642;2023-06-14T14:38:34;3.57;;;2.50;;
11086;SDS011;5597;47.588;9.642;2023-06-14T14:41:00;3.10;;;2.70;;
11086;SDS011;5597;47.588;9.642;2023-06-14T14:43:26;3.40;;;2.67;;
11086;SDS011;5597;47.588;9.642;2023-06-14T14:45:55;2.70;;;2.50;;
11086;SDS011;5597;47.588;9.642;2023-06-14T14:48:21;3.10;;;2.90;;
11086;SDS011;5597;47.588;9.642;2023-06-14T14:50:47;2.93;;;2.53;;
11086;SDS011;5597;47.588;9.642;2023-06-14T14:53:13;3.70;;;3.23;;
11086;SDS011;5597;47.588;9.642;2023-06-14T14:55:41;4.23;;;3.40;;
11086;SDS011;5597;47.588;9.642;2023-06-14T14:58:07;3.00;;;2.70;;
11086;SDS011;5597;47.588;9.642;2023-06-14T15:00:33;3.73;;;2.90;;
11086;SDS011;5597;47.588;9.642;2023-06-14T15:02:59;3.03;;;2.70;;
11086;SDS011;5597;47.588;9.642;2023-06-14T15:05:25;3.70;;;3.23;;
11086;SDS011;5597;47.588;9.642;2023-06-14T15:07:50;5.20;;;4.73;;
11086;SDS011;5597;47.588;9.642;2023-06-14T15:10:16;6.87;;;6.27;;
11086;SDS011;5597;47.588;9.642;2023-06-14T15:12:41;5.70;;;5.30;;